In Rescue
 
Open Full Screen Window  High Contrast Mode
Wind Gusting 00 knots
08
March 04, 2021 4:58 AM EST
Weather Information
Wind Direction
  320 °
Wind Speed
  08 kt (9 mph)
Wind Gust
  00 kt (0 mph)
Altimeter
30.15 in
Visibility
10 SM
Temperature
-04° C
25° F
Dewpoint
-08° C
18° F
Humidity
74%
Sky Condition
Overcast @ 2,100 ft
MVFR

METAR KCAD 040958Z AUTO 32008KT 10SM OVC021 M04/M08 A3015 RMK AO2 T10421082

FAA Disclaimer: The data displayed is for advisory purposes only and is not to be used for flight planning or operations.